createdAt,value
2018-06-09T00:02:42.881Z,13.30
2018-06-09T00:05:53.592Z,15.13
2018-06-09T00:09:05.977Z,12.37
2018-06-09T00:12:16.880Z,16.95
2018-06-09T00:15:27.789Z,12.33
2018-06-09T00:18:38.665Z,15.00
2018-06-09T00:21:49.663Z,15.43
2018-06-09T00:25:00.510Z,13.00
2018-06-09T00:28:11.481Z,13.75
2018-06-09T00:31:22.778Z,12.00
2018-06-09T00:34:33.233Z,14.45
2018-06-09T00:37:43.824Z,15.70
2018-06-09T00:40:54.663Z,12.65
2018-06-09T00:44:05.507Z,13.08
2018-06-09T00:47:16.003Z,14.15
2018-06-09T00:50:27.039Z,13.98
2018-06-09T00:53:37.576Z,13.90
2018-06-09T00:56:48.682Z,15.72
2018-06-09T00:59:59.334Z,14.80
2018-06-09T01:03:10.235Z,14.93
2018-06-09T01:06:20.714Z,15.37
2018-06-09T01:09:31.695Z,12.98
2018-06-09T01:12:42.606Z,15.05
2018-06-09T01:15:53.388Z,14.87
2018-06-09T01:19:04.234Z,17.60
2018-06-09T01:22:15.045Z,13.00
2018-06-09T01:25:25.799Z,17.67
2018-06-09T01:28:36.450Z,16.25
2018-06-09T01:31:47.506Z,16.35
2018-06-09T01:34:58.487Z,15.60
2018-06-09T01:38:08.975Z,14.43
2018-06-09T01:41:19.831Z,16.12
2018-06-09T01:44:30.541Z,13.70
2018-06-09T01:47:41.232Z,12.53
2018-06-09T01:50:52.180Z,13.98
2018-06-09T01:54:02.944Z,15.15
2018-06-09T01:57:13.748Z,15.43
2018-06-09T02:00:24.746Z,15.93
2018-06-09T02:03:35.296Z,14.28
2018-06-09T02:06:46.075Z,14.60
2018-06-09T02:09:57.025Z,17.90
2018-06-09T02:13:08.124Z,16.37
2018-06-09T02:16:18.564Z,16.00
2018-06-09T02:19:29.238Z,17.23
2018-06-09T02:22:39.912Z,15.65
2018-06-09T02:25:50.541Z,15.10
2018-06-09T02:29:01.476Z,15.45
2018-06-09T02:32:12.732Z,14.05
2018-06-09T02:35:23.774Z,15.78
2018-06-09T02:38:34.498Z,16.30
2018-06-09T02:41:45.232Z,16.90
2018-06-09T02:44:56.069Z,16.62
2018-06-09T02:48:06.406Z,12.20
2018-06-09T02:51:16.625Z,15.70
2018-06-09T02:54:27.223Z,15.40
2018-06-09T02:57:38.116Z,14.65
2018-06-09T03:00:48.732Z,16.12
2018-06-09T03:03:59.298Z,14.95
2018-06-09T03:07:10.151Z,13.45
2018-06-09T03:10:20.922Z,15.25
2018-06-09T03:13:31.463Z,14.47
2018-06-09T03:16:42.075Z,16.25
2018-06-09T03:19:52.712Z,16.30
2018-06-09T03:23:03.557Z,14.05
2018-06-09T03:26:14.229Z,15.65
2018-06-09T03:29:25.016Z,17.35
2018-06-09T03:32:36.301Z,14.85
2018-06-09T03:35:46.832Z,17.37
2018-06-09T03:38:57.389Z,16.82
2018-06-09T03:42:07.575Z,15.98
2018-06-09T03:45:18.556Z,14.90
2018-06-09T03:48:29.518Z,17.55
2018-06-09T03:51:40.141Z,15.32
2018-06-09T03:54:51.006Z,14.30
2018-06-09T03:58:02.565Z,17.75
2018-06-09T04:01:13.518Z,16.75
2018-06-09T04:04:24.196Z,19.17
2018-06-09T04:07:34.464Z,14.43
2018-06-09T04:10:45.464Z,16.87
2018-06-09T04:13:55.828Z,16.75
2018-06-09T04:17:06.679Z,19.30
2018-06-09T04:20:16.873Z,16.52
2018-06-09T04:23:27.592Z,18.48
2018-06-09T04:26:38.403Z,16.42
2018-06-09T04:29:49.135Z,21.95
2018-06-09T04:33:00.174Z,15.53
2018-06-09T04:36:11.100Z,18.85
2018-06-09T04:39:22.139Z,17.50
2018-06-09T04:42:33.291Z,14.53
2018-06-09T04:45:43.478Z,15.75
2018-06-09T04:48:54.169Z,18.45
2018-06-09T04:52:05.001Z,17.90
2018-06-09T04:55:15.748Z,17.32
2018-06-09T04:58:27.826Z,16.17
2018-06-09T05:01:38.434Z,16.35
2018-06-09T05:04:49.733Z,18.35
2018-06-09T05:08:00.094Z,18.37
2018-06-09T05:11:12.023Z,16.35
2018-06-09T05:14:22.708Z,16.85
2018-06-09T05:17:33.406Z,18.12
2018-06-09T05:20:44.220Z,16.15
2018-06-09T05:23:54.934Z,16.67
2018-06-09T05:27:05.605Z,16.05
2018-06-09T05:30:16.325Z,15.65
2018-06-09T05:33:27.050Z,17.25
2018-06-09T05:36:37.449Z,19.07
2018-06-09T05:39:48.428Z,16.57
2018-06-09T05:42:59.133Z,15.83
2018-06-09T05:46:09.757Z,15.58
2018-06-09T05:49:21.083Z,16.67
2018-06-09T05:52:32.161Z,16.82
2018-06-09T05:55:42.669Z,18.25
2018-06-09T05:58:53.559Z,17.98
2018-06-09T06:02:05.352Z,16.97
2018-06-09T06:05:16.136Z,15.25
2018-06-09T06:08:26.775Z,16.80
2018-06-09T06:11:37.474Z,19.25
2018-06-09T06:14:47.710Z,15.90
2018-06-09T06:17:58.467Z,18.23
2018-06-09T06:21:08.160Z,16.07
2018-06-09T06:24:17.866Z,14.77
2018-06-09T06:27:27.985Z,14.63
2018-06-09T06:30:37.726Z,18.00
2018-06-09T06:33:47.915Z,16.97
2018-06-09T06:36:58.423Z,20.17
2018-06-09T06:40:08.040Z,15.67
2018-06-09T06:43:18.128Z,17.97
2018-06-09T06:46:28.008Z,14.50
2018-06-09T06:49:37.725Z,19.20
2018-06-09T06:52:47.652Z,14.00
2018-06-09T06:55:57.561Z,15.57
2018-06-09T06:59:08.185Z,17.13
2018-06-09T07:02:18.324Z,15.97
2018-06-09T07:05:28.788Z,17.03
2018-06-09T07:08:38.685Z,16.07
2018-06-09T07:11:48.731Z,18.63
2018-06-09T07:14:58.744Z,19.53
2018-06-09T07:18:08.628Z,17.90
2018-06-09T07:21:18.399Z,17.80
2018-06-09T07:24:28.104Z,18.50
2018-06-09T07:27:38.087Z,17.03
2018-06-09T07:30:48.061Z,19.40
2018-06-09T07:33:57.988Z,16.77
2018-06-09T07:37:09.534Z,15.97
2018-06-09T07:40:20.198Z,18.67
2018-06-09T07:43:30.418Z,16.40
2018-06-09T07:46:40.106Z,22.00
2018-06-09T07:49:50.849Z,19.20
2018-06-09T07:53:01.418Z,19.77
2018-06-09T07:56:11.074Z,16.10
2018-06-09T07:59:21.115Z,16.83
2018-06-09T08:02:30.924Z,15.33
2018-06-09T08:05:40.775Z,24.00
2018-06-09T08:08:50.756Z,15.17
2018-06-09T08:12:01.592Z,16.90
2018-06-09T08:15:11.267Z,15.40
2018-06-09T08:18:20.932Z,17.93
2018-06-09T08:21:30.785Z,17.57
2018-06-09T08:24:40.443Z,16.57
2018-06-09T08:27:50.576Z,18.37
2018-06-09T08:31:00.597Z,18.63
2018-06-09T08:34:11.247Z,16.70
2018-06-09T08:37:21.444Z,16.00
2018-06-09T08:40:31.363Z,17.57
2018-06-09T08:43:41.061Z,15.47
2018-06-09T08:46:50.776Z,17.87
2018-06-09T08:50:00.719Z,13.73
2018-06-09T08:53:10.392Z,13.87
2018-06-09T08:56:20.158Z,17.33
2018-06-09T08:59:30.050Z,15.27
2018-06-09T09:02:40.406Z,13.73
2018-06-09T09:05:50.711Z,14.27
2018-06-09T09:09:00.460Z,13.33
2018-06-09T09:12:10.345Z,12.10
2018-06-09T09:15:20.160Z,12.13
2018-06-09T09:18:30.087Z,13.43
2018-06-09T09:21:40.632Z,12.03
2018-06-09T09:24:50.319Z,11.53
2018-06-09T09:28:00.391Z,12.73
2018-06-09T09:31:10.111Z,9.30
2018-06-09T09:34:20.180Z,12.70
2018-06-09T09:37:29.856Z,9.57
2018-06-09T09:40:39.772Z,10.67
2018-06-09T09:43:49.915Z,9.20
2018-06-09T09:46:59.768Z,8.53
2018-06-09T09:50:09.450Z,9.60
2018-06-09T09:53:19.024Z,11.37
2018-06-09T09:56:28.843Z,14.07
2018-06-09T09:59:38.736Z,14.40
2018-06-09T10:02:48.649Z,9.93
2018-06-09T10:05:58.664Z,11.33
2018-06-09T10:09:09.294Z,10.83
2018-06-09T10:12:19.293Z,17.83
2018-06-09T10:15:30.058Z,9.37
2018-06-09T10:18:40.778Z,9.40
2018-06-09T10:21:50.384Z,9.80
2018-06-09T10:25:00.195Z,11.03
2018-06-09T10:28:10.221Z,9.93
2018-06-09T10:31:20.183Z,12.33
2018-06-09T10:34:30.853Z,9.17
2018-06-09T10:37:40.750Z,11.83
2018-06-09T10:40:50.703Z,9.83
2018-06-09T10:44:00.311Z,10.67
2018-06-09T10:47:10.340Z,11.67
2018-06-09T10:50:20.071Z,12.13
2018-06-09T10:53:29.614Z,11.73
2018-06-09T10:56:39.302Z,11.07
2018-06-09T10:59:49.095Z,9.63
2018-06-09T11:02:59.157Z,10.67
2018-06-09T11:06:09.711Z,9.70
2018-06-09T11:09:19.495Z,7.00
2018-06-09T11:12:29.530Z,8.43
2018-06-09T11:15:39.306Z,9.83
2018-06-09T11:18:49.628Z,9.03
2018-06-09T11:21:59.768Z,9.20
2018-06-09T11:25:09.863Z,10.20
2018-06-09T11:28:19.750Z,8.07
2018-06-09T11:31:29.773Z,9.00
2018-06-09T11:34:41.570Z,11.00
2018-06-09T11:37:51.980Z,9.63
2018-06-09T11:41:02.376Z,9.47
2018-06-09T11:44:12.064Z,9.33
2018-06-09T11:47:21.909Z,9.57
2018-06-09T11:50:31.731Z,9.10
2018-06-09T11:53:41.679Z,8.67
2018-06-09T11:56:52.397Z,8.40
2018-06-09T12:00:02.845Z,10.10
2018-06-09T12:03:12.699Z,9.10
2018-06-09T12:06:22.637Z,12.87
2018-06-09T12:09:33.218Z,8.30
2018-06-09T12:12:44.156Z,9.27
2018-06-09T12:15:54.123Z,8.97
2018-06-09T12:19:04.863Z,8.33
2018-06-09T12:22:14.739Z,9.30
2018-06-09T12:25:24.500Z,7.90
2018-06-09T12:28:35.186Z,8.30
2018-06-09T12:31:45.824Z,9.40
2018-06-09T12:34:56.276Z,10.10
2018-06-09T12:38:06.720Z,9.30
2018-06-09T12:41:17.507Z,10.50
2018-06-09T12:44:28.232Z,8.40
2018-06-09T12:47:40.131Z,11.30
2018-06-09T12:50:49.685Z,13.17
2018-06-09T12:54:01.438Z,9.33
2018-06-09T12:57:11.180Z,9.47
2018-06-09T13:00:21.193Z,11.83
2018-06-09T13:03:31.953Z,10.33
2018-06-09T13:06:42.562Z,16.73
2018-06-09T13:09:53.103Z,10.07
2018-06-09T13:13:02.801Z,15.53
2018-06-09T13:16:12.536Z,11.63
2018-06-09T13:19:22.841Z,11.27
2018-06-09T13:22:32.688Z,11.73
2018-06-09T13:25:42.446Z,10.40
2018-06-09T13:28:52.980Z,10.57
2018-06-09T13:32:02.887Z,10.63
2018-06-09T13:35:12.694Z,12.10
2018-06-09T13:38:23.970Z,12.70
2018-06-09T13:41:34.170Z,9.50
2018-06-09T13:44:44.122Z,11.17
2018-06-09T13:47:54.721Z,10.00
2018-06-09T13:51:04.498Z,11.70
2018-06-09T13:54:15.069Z,11.70
2018-06-09T13:57:25.289Z,10.70
2018-06-09T14:00:36.013Z,15.23
2018-06-09T14:03:45.992Z,11.67
2018-06-09T14:06:56.588Z,11.97
2018-06-09T14:10:07.120Z,12.57
2018-06-09T14:13:16.850Z,13.70
2018-06-09T14:16:27.008Z,15.53
2018-06-09T14:19:37.414Z,13.80
2018-06-09T14:22:47.464Z,12.63
2018-06-09T14:25:57.484Z,15.30
2018-06-09T14:29:07.235Z,14.50
2018-06-09T14:32:17.203Z,12.50
2018-06-09T14:35:28.031Z,14.90
2018-06-09T14:38:38.280Z,12.33
2018-06-09T14:41:48.127Z,13.50
2018-06-09T14:44:57.746Z,13.97
2018-06-09T14:48:07.611Z,13.30
2018-06-09T14:51:18.121Z,12.80
2018-06-09T14:54:28.284Z,14.23
2018-06-09T14:57:38.073Z,13.53
2018-06-09T15:00:48.195Z,13.87
2018-06-09T15:03:58.783Z,14.20
2018-06-09T15:07:09.500Z,13.57
2018-06-09T15:10:19.384Z,15.60
2018-06-09T15:13:29.224Z,13.30
2018-06-09T15:16:39.094Z,12.50
2018-06-09T15:19:48.818Z,13.67
2018-06-09T15:22:58.414Z,12.40
2018-06-09T15:26:08.525Z,13.10
2018-06-09T15:29:19.256Z,13.23
2018-06-09T15:32:28.863Z,13.97
2018-06-09T15:35:39.213Z,13.70
2018-06-09T15:38:49.996Z,13.07
2018-06-09T15:42:00.463Z,9.40
2018-06-09T15:45:12.286Z,11.17
2018-06-09T15:48:23.414Z,9.93
2018-06-09T15:51:35.787Z,11.93
2018-06-09T15:54:46.725Z,12.60
2018-06-09T15:57:57.756Z,12.77
2018-06-09T16:01:09.801Z,11.20
2018-06-09T16:04:21.608Z,28.77
2018-06-09T16:07:33.904Z,12.50
2018-06-09T16:10:45.697Z,9.20
2018-06-09T16:13:57.595Z,11.13
2018-06-09T16:17:10.384Z,12.93
2018-06-09T16:20:22.978Z,15.10
2018-06-09T16:23:34.484Z,14.63
2018-06-09T16:26:45.484Z,15.00
2018-06-09T16:29:55.900Z,13.17
2018-06-09T16:33:06.813Z,15.40
2018-06-09T16:36:18.496Z,13.00
2018-06-09T16:39:28.854Z,13.47
2018-06-09T16:42:39.954Z,11.50
2018-06-09T16:45:50.392Z,11.83
2018-06-09T16:49:02.096Z,10.53
2018-06-09T16:52:12.572Z,10.37
2018-06-09T16:55:22.886Z,10.90
2018-06-09T16:58:33.849Z,12.03
2018-06-09T17:01:44.137Z,13.60
2018-06-09T17:04:56.514Z,12.30
2018-06-09T17:08:08.810Z,12.60
2018-06-09T17:11:19.646Z,13.80
2018-06-09T17:14:31.008Z,14.87
2018-06-09T17:17:42.220Z,12.80
2018-06-09T17:20:53.940Z,16.90
2018-06-09T17:24:04.537Z,13.27
2018-06-09T17:27:15.212Z,11.00
2018-06-09T17:30:25.694Z,11.83
2018-06-09T17:33:36.315Z,11.17
2018-06-09T17:36:47.068Z,13.93
2018-06-09T17:39:58.522Z,12.90
2018-06-09T17:43:09.543Z,13.80
2018-06-09T17:46:21.530Z,12.90
2018-06-09T17:49:34.003Z,12.93
2018-06-09T17:52:44.265Z,16.13
2018-06-09T17:55:57.018Z,14.23
2018-06-09T17:59:07.820Z,13.30
2018-06-09T18:02:17.732Z,14.33
2018-06-09T18:05:27.440Z,14.57
2018-06-09T18:08:37.096Z,11.93
2018-06-09T18:11:48.068Z,21.10
2018-06-09T18:14:58.446Z,14.10
2018-06-09T18:18:08.915Z,14.73
2018-06-09T18:21:22.267Z,13.33
2018-06-09T18:24:32.151Z,13.57
2018-06-09T18:27:42.887Z,13.00
2018-06-09T18:30:52.962Z,15.37
2018-06-09T18:34:03.198Z,12.60
2018-06-09T18:37:14.836Z,11.73
2018-06-09T18:40:25.011Z,10.63
2018-06-09T18:43:35.566Z,9.60
2018-06-09T18:46:46.453Z,9.15
2018-06-09T18:49:57.305Z,8.93
2018-06-09T18:53:07.504Z,9.40
2018-06-09T18:56:18.554Z,10.03
2018-06-09T18:59:29.048Z,10.33
2018-06-09T19:02:41.525Z,9.20
2018-06-09T19:05:52.257Z,7.40
2018-06-09T19:09:05.201Z,9.57
2018-06-09T19:12:16.434Z,8.80
2018-06-09T19:15:26.613Z,5.40
2018-06-09T19:18:37.077Z,6.70
2018-06-09T19:21:47.285Z,8.15
2018-06-09T19:24:58.289Z,7.15
2018-06-09T19:28:09.379Z,9.00
2018-06-09T19:31:20.004Z,7.07
2018-06-09T19:34:31.041Z,7.12
2018-06-09T19:37:42.299Z,9.38
2018-06-09T19:40:52.800Z,6.03
2018-06-09T19:44:03.688Z,7.60
2018-06-09T19:47:14.782Z,6.40
2018-06-09T19:50:25.501Z,7.65
2018-06-09T19:53:36.226Z,8.85
2018-06-09T19:56:48.127Z,6.15
2018-06-09T19:59:58.972Z,6.83
2018-06-09T20:03:09.204Z,8.23
2018-06-09T20:06:20.120Z,6.28
2018-06-09T20:09:30.973Z,5.20
2018-06-09T20:12:41.219Z,6.37
2018-06-09T20:15:52.073Z,5.37
2018-06-09T20:19:02.731Z,7.05
2018-06-09T20:22:14.947Z,7.97
2018-06-09T20:25:25.620Z,6.72
2018-06-09T20:28:37.773Z,6.95
2018-06-09T20:31:48.322Z,7.72
2018-06-09T20:34:58.937Z,8.28
2018-06-09T20:38:09.942Z,6.35
2018-06-09T20:41:20.058Z,6.62
2018-06-09T20:44:30.908Z,6.83
2018-06-09T20:47:41.643Z,6.75
2018-06-09T20:50:53.041Z,7.05
2018-06-09T20:54:04.167Z,9.70
2018-06-09T20:57:14.963Z,9.53
2018-06-09T21:00:25.740Z,11.75
2018-06-09T21:03:36.566Z,9.13
2018-06-09T21:06:46.971Z,8.50
2018-06-09T21:09:57.979Z,9.48
2018-06-09T21:13:08.547Z,9.20
2018-06-09T21:16:19.794Z,7.17
2018-06-09T21:19:30.323Z,7.35
2018-06-09T21:22:40.824Z,8.70
2018-06-09T21:25:51.734Z,11.18
2018-06-09T21:29:06.467Z,8.63
2018-06-09T21:32:22.447Z,8.75
2018-06-09T21:35:44.086Z,9.10
2018-06-09T21:39:06.083Z,9.53
2018-06-09T21:42:21.832Z,12.28
2018-06-09T21:45:37.640Z,8.38
2018-06-09T21:48:47.981Z,10.05
2018-06-09T21:51:58.631Z,8.93
2018-06-09T21:55:10.012Z,8.13
2018-06-09T21:58:20.704Z,8.05
2018-06-09T22:01:31.340Z,9.75
2018-06-09T22:04:41.923Z,9.40
2018-06-09T22:07:52.840Z,7.42
2018-06-09T22:11:04.550Z,7.92
2018-06-09T22:14:15.292Z,9.73
2018-06-09T22:17:25.572Z,10.30
2018-06-09T22:20:36.035Z,10.55
2018-06-09T22:23:46.920Z,8.93
2018-06-09T22:26:57.867Z,8.78
2018-06-09T22:30:08.304Z,9.80
2018-06-09T22:33:19.277Z,9.18
2018-06-09T22:36:30.254Z,10.18
2018-06-09T22:39:41.191Z,9.70
2018-06-09T22:42:51.825Z,8.93
2018-06-09T22:46:02.522Z,9.13
2018-06-09T22:49:13.499Z,10.20
2018-06-09T22:52:24.039Z,11.80
2018-06-09T22:55:34.755Z,8.33
2018-06-09T22:58:45.756Z,10.68
2018-06-09T23:01:55.985Z,12.30
2018-06-09T23:05:06.217Z,10.88
2018-06-09T23:08:17.135Z,9.93
2018-06-09T23:11:28.683Z,9.88
2018-06-09T23:14:39.445Z,11.70
2018-06-09T23:17:50.750Z,12.82
2018-06-09T23:21:00.829Z,10.88
2018-06-09T23:24:11.641Z,12.47
2018-06-09T23:27:22.121Z,10.45
2018-06-09T23:30:33.201Z,10.05
2018-06-09T23:33:43.896Z,10.05
2018-06-09T23:36:54.760Z,12.00
2018-06-09T23:40:06.026Z,9.85
2018-06-09T23:43:16.963Z,10.43
2018-06-09T23:46:27.586Z,10.25
2018-06-09T23:49:38.536Z,10.55
2018-06-09T23:52:49.041Z,9.88
2018-06-09T23:55:59.966Z,11.22
2018-06-09T23:59:10.732Z,12.43
